sensor_id;sensor_type;location;lat;lon;timestamp;pressure;altitude;pressure_sealevel;temperature;humidity
35647;BME280;28680;45.642;13.756;2023-01-26T00:01:23;101516.00;;;7.56;100.00
35647;BME280;28680;45.642;13.756;2023-01-26T00:03:49;101521.03;;;7.44;100.00
35647;BME280;28680;45.642;13.756;2023-01-26T00:06:18;101519.75;;;7.17;100.00
35647;BME280;28680;45.642;13.756;2023-01-26T00:08:55;101511.72;;;7.71;100.00
35647;BME280;28680;45.642;13.756;2023-01-26T00:11:25;101500.09;;;7.93;100.00
35647;BME280;28680;45.642;13.756;2023-01-26T00:13:52;101498.56;;;7.57;100.00
35647;BME280;28680;45.642;13.756;2023-01-26T00:16:19;101494.53;;;6.83;100.00
35647;BME280;28680;45.642;13.756;2023-01-26T00:18:45;101486.41;;;6.89;100.00
35647;BME280;28680;45.642;13.756;2023-01-26T00:21:17;101485.63;;;6.87;100.00
35647;BME280;28680;45.642;13.756;2023-01-26T00:23:44;101479.69;;;7.18;100.00
35647;BME280;28680;45.642;13.756;2023-01-26T00:26:15;101478.66;;;6.88;100.00
35647;BME280;28680;45.642;13.756;2023-01-26T00:28:41;101468.22;;;8.02;100.00
35647;BME280;28680;45.642;13.756;2023-01-26T00:31:14;101477.03;;;7.36;100.00
35647;BME280;28680;45.642;13.756;2023-01-26T00:33:41;101473.81;;;6.62;100.00
35647;BME280;28680;45.642;13.756;2023-01-26T00:36:08;101479.25;;;6.93;100.00
35647;BME280;28680;45.642;13.756;2023-01-26T00:38:34;101471.56;;;6.90;100.00
35647;BME280;28680;45.642;13.756;2023-01-26T00:41:00;101479.00;;;7.15;100.00
35647;BME280;28680;45.642;13.756;2023-01-26T00:43:26;101475.72;;;7.11;100.00
35647;BME280;28680;45.642;13.756;2023-01-26T00:45:52;101476.41;;;6.97;100.00
35647;BME280;28680;45.642;13.756;2023-01-26T00:48:17;101474.28;;;7.71;100.00
35647;BME280;28680;45.642;13.756;2023-01-26T00:50:43;101460.88;;;7.45;100.00
35647;BME280;28680;45.642;13.756;2023-01-26T00:53:09;101469.59;;;6.77;100.00
35647;BME280;28680;45.642;13.756;2023-01-26T00:55:36;101476.56;;;6.94;100.00
35647;BME280;28680;45.642;13.756;2023-01-26T00:58:05;101461.59;;;6.98;100.00
35647;BME280;28680;45.642;13.756;2023-01-26T01:00:33;101450.09;;;7.67;100.00
35647;BME280;28680;45.642;13.756;2023-01-26T01:03:00;101457.56;;;6.75;100.00
35647;BME280;28680;45.642;13.756;2023-01-26T01:05:28;101446.81;;;6.81;100.00
35647;BME280;28680;45.642;13.756;2023-01-26T01:07:55;101455.50;;;7.15;100.00
35647;BME280;28680;45.642;13.756;2023-01-26T01:10:21;101445.69;;;6.69;100.00
35647;BME280;28680;45.642;13.756;2023-01-26T01:12:47;101452.63;;;7.03;100.00
35647;BME280;28680;45.642;13.756;2023-01-26T01:15:15;101467.66;;;6.98;100.00
35647;BME280;28680;45.642;13.756;2023-01-26T01:17:41;101448.31;;;6.15;100.00
35647;BME280;28680;45.642;13.756;2023-01-26T01:20:09;101449.09;;;6.35;100.00
35647;BME280;28680;45.642;13.756;2023-01-26T01:22:35;101448.03;;;6.21;100.00
35647;BME280;28680;45.642;13.756;2023-01-26T01:25:02;101436.81;;;5.83;100.00
35647;BME280;28680;45.642;13.756;2023-01-26T01:27:28;101429.00;;;6.37;100.00
35647;BME280;28680;45.642;13.756;2023-01-26T01:29:54;101430.84;;;6.35;100.00
35647;BME280;28680;45.642;13.756;2023-01-26T01:32:20;101427.53;;;6.83;100.00
35647;BME280;28680;45.642;13.756;2023-01-26T01:34:47;101427.47;;;6.50;100.00
35647;BME280;28680;45.642;13.756;2023-01-26T01:37:13;101430.72;;;6.55;100.00
35647;BME280;28680;45.642;13.756;2023-01-26T01:39:39;101432.09;;;6.62;100.00
35647;BME280;28680;45.642;13.756;2023-01-26T01:42:05;101431.94;;;6.48;100.00
35647;BME280;28680;45.642;13.756;2023-01-26T01:44:35;101435.31;;;6.50;100.00
35647;BME280;28680;45.642;13.756;2023-01-26T01:49:37;101408.25;;;6.86;100.00
35647;BME280;28680;45.642;13.756;2023-01-26T01:52:13;101422.88;;;6.55;100.00
35647;BME280;28680;45.642;13.756;2023-01-26T01:55:03;101414.06;;;6.58;100.00
35647;BME280;28680;45.642;13.756;2023-01-26T01:57:39;101409.69;;;6.58;100.00
35647;BME280;28680;45.642;13.756;2023-01-26T02:00:16;101402.47;;;6.81;100.00
35647;BME280;28680;45.642;13.756;2023-01-26T02:02:45;101400.69;;;6.81;100.00
35647;BME280;28680;45.642;13.756;2023-01-26T02:08:35;101381.97;;;7.07;100.00
35647;BME280;28680;45.642;13.756;2023-01-26T02:11:12;101396.03;;;7.20;100.00
35647;BME280;28680;45.642;13.756;2023-01-26T02:13:41;101379.53;;;7.19;100.00
35647;BME280;28680;45.642;13.756;2023-01-26T02:16:08;101373.16;;;7.41;100.00
35647;BME280;28680;45.642;13.756;2023-01-26T02:18:34;101372.41;;;6.90;100.00
35647;BME280;28680;45.642;13.756;2023-01-26T02:21:08;101379.78;;;6.31;100.00
35647;BME280;28680;45.642;13.756;2023-01-26T02:24:06;101374.44;;;6.67;100.00
35647;BME280;28680;45.642;13.756;2023-01-26T02:26:36;101368.94;;;6.73;100.00
35647;BME280;28680;45.642;13.756;2023-01-26T02:29:08;101362.00;;;6.56;100.00
35647;BME280;28680;45.642;13.756;2023-01-26T02:31:34;101362.84;;;6.39;100.00
35647;BME280;28680;45.642;13.756;2023-01-26T02:34:01;101362.59;;;6.44;100.00
35647;BME280;28680;45.642;13.756;2023-01-26T02:36:29;101357.63;;;6.39;100.00
35647;BME280;28680;45.642;13.756;2023-01-26T02:39:51;101351.78;;;6.69;100.00
35647;BME280;28680;45.642;13.756;2023-01-26T02:42:19;101333.81;;;7.44;100.00
35647;BME280;28680;45.642;13.756;2023-01-26T02:45:09;101336.94;;;6.70;100.00
35647;BME280;28680;45.642;13.756;2023-01-26T02:47:35;101338.19;;;7.44;100.00
35647;BME280;28680;45.642;13.756;2023-01-26T02:50:01;101334.97;;;6.91;100.00
35647;BME280;28680;45.642;13.756;2023-01-26T02:52:29;101343.88;;;6.53;100.00
35647;BME280;28680;45.642;13.756;2023-01-26T02:54:57;101331.94;;;6.82;100.00
35647;BME280;28680;45.642;13.756;2023-01-26T02:57:42;101330.09;;;6.67;100.00
35647;BME280;28680;45.642;13.756;2023-01-26T03:00:24;101315.06;;;6.72;100.00
35647;BME280;28680;45.642;13.756;2023-01-26T03:02:53;101330.09;;;6.34;100.00
35647;BME280;28680;45.642;13.756;2023-01-26T03:05:20;101323.59;;;6.08;100.00
35647;BME280;28680;45.642;13.756;2023-01-26T03:07:46;101317.00;;;6.69;100.00
35647;BME280;28680;45.642;13.756;2023-01-26T03:10:12;101312.34;;;6.07;100.00
35647;BME280;28680;45.642;13.756;2023-01-26T03:12:38;101325.19;;;6.10;100.00
35647;BME280;28680;45.642;13.756;2023-01-26T03:15:05;101307.00;;;5.91;100.00
35647;BME280;28680;45.642;13.756;2023-01-26T03:17:49;101306.81;;;6.13;100.00
35647;BME280;28680;45.642;13.756;2023-01-26T03:20:15;101305.00;;;6.31;100.00
35647;BME280;28680;45.642;13.756;2023-01-26T03:23:00;101298.34;;;6.43;100.00
35647;BME280;28680;45.642;13.756;2023-01-26T03:25:44;101301.22;;;6.21;100.00
35647;BME280;28680;45.642;13.756;2023-01-26T03:28:32;101286.19;;;6.26;100.00
35647;BME280;28680;45.642;13.756;2023-01-26T03:30:57;101294.94;;;6.58;100.00
35647;BME280;28680;45.642;13.756;2023-01-26T03:33:23;101299.44;;;6.21;100.00
35647;BME280;28680;45.642;13.756;2023-01-26T03:35:53;101295.09;;;6.22;100.00
35647;BME280;28680;45.642;13.756;2023-01-26T03:38:19;101279.84;;;6.48;100.00
35647;BME280;28680;45.642;13.756;2023-01-26T03:40:45;101283.63;;;5.90;100.00
35647;BME280;28680;45.642;13.756;2023-01-26T03:43:29;101284.78;;;5.66;100.00
35647;BME280;28680;45.642;13.756;2023-01-26T03:46:14;101265.63;;;5.31;100.00
35647;BME280;28680;45.642;13.756;2023-01-26T03:48:58;101280.56;;;5.81;100.00
35647;BME280;28680;45.642;13.756;2023-01-26T03:51:42;101272.16;;;5.40;100.00
35647;BME280;28680;45.642;13.756;2023-01-26T03:54:27;101282.16;;;5.13;100.00
35647;BME280;28680;45.642;13.756;2023-01-26T03:57:11;101267.16;;;5.54;100.00
35647;BME280;28680;45.642;13.756;2023-01-26T03:59:37;101262.47;;;5.61;100.00
35647;BME280;28680;45.642;13.756;2023-01-26T04:02:42;101284.56;;;5.71;100.00
35647;BME280;28680;45.642;13.756;2023-01-26T04:05:27;101266.94;;;5.94;100.00
35647;BME280;28680;45.642;13.756;2023-01-26T04:08:12;101242.19;;;5.68;100.00
35647;BME280;28680;45.642;13.756;2023-01-26T04:10:54;101259.50;;;5.69;100.00
35647;BME280;28680;45.642;13.756;2023-01-26T04:13:22;101264.47;;;5.56;100.00
35647;BME280;28680;45.642;13.756;2023-01-26T04:16:09;101239.72;;;5.47;100.00
35647;BME280;28680;45.642;13.756;2023-01-26T04:18:54;101236.22;;;5.12;100.00
35647;BME280;28680;45.642;13.756;2023-01-26T04:21:38;101230.03;;;5.14;100.00
35647;BME280;28680;45.642;13.756;2023-01-26T04:24:06;101239.41;;;4.99;100.00
35647;BME280;28680;45.642;13.756;2023-01-26T04:26:39;101236.81;;;4.80;100.00
35647;BME280;28680;45.642;13.756;2023-01-26T04:29:11;101243.13;;;4.94;100.00
35647;BME280;28680;45.642;13.756;2023-01-26T04:31:39;101225.34;;;5.03;100.00
35647;BME280;28680;45.642;13.756;2023-01-26T04:34:09;101227.28;;;5.35;100.00
35647;BME280;28680;45.642;13.756;2023-01-26T04:36:35;101230.75;;;5.35;100.00
35647;BME280;28680;45.642;13.756;2023-01-26T04:39:01;101223.81;;;5.88;100.00
35647;BME280;28680;45.642;13.756;2023-01-26T04:41:31;101221.63;;;5.26;100.00
35647;BME280;28680;45.642;13.756;2023-01-26T04:43:57;101227.72;;;5.62;100.00
35647;BME280;28680;45.642;13.756;2023-01-26T04:46:23;101228.84;;;5.39;100.00
35647;BME280;28680;45.642;13.756;2023-01-26T04:48:50;101212.75;;;5.48;100.00
35647;BME280;28680;45.642;13.756;2023-01-26T04:51:19;101224.78;;;5.51;100.00
35647;BME280;28680;45.642;13.756;2023-01-26T04:53:46;101224.94;;;5.47;100.00
35647;BME280;28680;45.642;13.756;2023-01-26T04:56:26;101222.75;;;5.21;100.00
35647;BME280;28680;45.642;13.756;2023-01-26T04:58:53;101220.56;;;5.48;100.00
35647;BME280;28680;45.642;13.756;2023-01-26T05:01:20;101244.22;;;5.26;100.00
35647;BME280;28680;45.642;13.756;2023-01-26T05:03:46;101237.16;;;4.92;100.00
35647;BME280;28680;45.642;13.756;2023-01-26T05:06:12;101240.16;;;5.01;100.00
35647;BME280;28680;45.642;13.756;2023-01-26T05:08:38;101230.56;;;4.65;100.00
35647;BME280;28680;45.642;13.756;2023-01-26T05:11:05;101221.69;;;4.88;100.00
35647;BME280;28680;45.642;13.756;2023-01-26T05:13:32;101224.34;;;4.87;100.00
35647;BME280;28680;45.642;13.756;2023-01-26T05:16:04;101212.75;;;4.94;100.00
35647;BME280;28680;45.642;13.756;2023-01-26T05:18:30;101214.50;;;5.13;100.00
35647;BME280;28680;45.642;13.756;2023-01-26T05:20:57;101213.53;;;4.77;100.00
35647;BME280;28680;45.642;13.756;2023-01-26T05:23:23;101214.38;;;5.33;100.00
35647;BME280;28680;45.642;13.756;2023-01-26T05:25:49;101215.34;;;4.94;100.00
35647;BME280;28680;45.642;13.756;2023-01-26T05:28:15;101222.72;;;5.03;100.00
35647;BME280;28680;45.642;13.756;2023-01-26T05:30:41;101211.38;;;5.04;100.00
35647;BME280;28680;45.642;13.756;2023-01-26T05:33:09;101213.25;;;5.56;100.00
35647;BME280;28680;45.642;13.756;2023-01-26T05:35:35;101209.31;;;4.94;100.00
35647;BME280;28680;45.642;13.756;2023-01-26T05:38:01;101219.31;;;4.84;100.00
35647;BME280;28680;45.642;13.756;2023-01-26T05:40:27;101221.34;;;4.58;100.00
35647;BME280;28680;45.642;13.756;2023-01-26T05:42:53;101224.31;;;4.69;100.00
35647;BME280;28680;45.642;13.756;2023-01-26T05:45:20;101209.63;;;5.41;100.00
35647;BME280;28680;45.642;13.756;2023-01-26T05:47:46;101226.09;;;5.05;100.00
35647;BME280;28680;45.642;13.756;2023-01-26T05:50:16;101233.63;;;4.93;100.00
35647;BME280;28680;45.642;13.756;2023-01-26T05:52:42;101216.13;;;4.77;100.00
35647;BME280;28680;45.642;13.756;2023-01-26T05:55:11;101211.78;;;4.59;100.00
35647;BME280;28680;45.642;13.756;2023-01-26T05:57:37;101210.66;;;4.83;100.00
35647;BME280;28680;45.642;13.756;2023-01-26T06:00:05;101223.59;;;4.85;100.00
35647;BME280;28680;45.642;13.756;2023-01-26T06:02:31;101216.47;;;5.07;100.00
35647;BME280;28680;45.642;13.756;2023-01-26T06:04:57;101221.25;;;4.98;100.00
35647;BME280;28680;45.642;13.756;2023-01-26T06:07:22;101228.56;;;4.89;100.00
35647;BME280;28680;45.642;13.756;2023-01-26T06:09:48;101222.03;;;4.81;100.00
35647;BME280;28680;45.642;13.756;2023-01-26T06:12:17;101216.78;;;4.82;100.00
35647;BME280;28680;45.642;13.756;2023-01-26T06:14:44;101211.13;;;4.54;100.00
35647;BME280;28680;45.642;13.756;2023-01-26T06:17:11;101209.34;;;4.56;100.00
35647;BME280;28680;45.642;13.756;2023-01-26T06:19:37;101225.53;;;4.80;100.00
35647;BME280;28680;45.642;13.756;2023-01-26T06:22:06;101219.34;;;5.55;100.00
35647;BME280;28680;45.642;13.756;2023-01-26T06:24:32;101223.09;;;4.96;100.00
35647;BME280;28680;45.642;13.756;2023-01-26T06:26:59;101231.97;;;4.92;100.00
35647;BME280;28680;45.642;13.756;2023-01-26T06:29:25;101244.09;;;4.53;100.00
35647;BME280;28680;45.642;13.756;2023-01-26T06:31:51;101229.28;;;4.74;100.00
35647;BME280;28680;45.642;13.756;2023-01-26T06:34:17;101236.81;;;4.80;100.00
35647;BME280;28680;45.642;13.756;2023-01-26T06:36:45;101243.31;;;4.51;100.00
35647;BME280;28680;45.642;13.756;2023-01-26T06:39:11;101239.75;;;5.11;100.00
35647;BME280;28680;45.642;13.756;2023-01-26T06:41:38;101241.47;;;5.10;100.00
35647;BME280;28680;45.642;13.756;2023-01-26T06:44:04;101241.25;;;4.78;100.00
35647;BME280;28680;45.642;13.756;2023-01-26T06:46:30;101239.47;;;4.60;100.00
35647;BME280;28680;45.642;13.756;2023-01-26T06:48:56;101249.44;;;5.07;100.00
35647;BME280;28680;45.642;13.756;2023-01-26T06:51:40;101249.72;;;4.82;100.00
35647;BME280;28680;45.642;13.756;2023-01-26T06:54:13;101241.66;;;4.50;100.00
35647;BME280;28680;45.642;13.756;2023-01-26T06:56:39;101254.47;;;4.34;100.00
35647;BME280;28680;45.642;13.756;2023-01-26T06:59:06;101245.63;;;4.38;100.00
35647;BME280;28680;45.642;13.756;2023-01-26T07:01:39;101259.59;;;4.36;100.00
35647;BME280;28680;45.642;13.756;2023-01-26T07:04:06;101261.59;;;4.49;100.00
35647;BME280;28680;45.642;13.756;2023-01-26T07:06:32;101268.25;;;4.36;100.00
35647;BME280;28680;45.642;13.756;2023-01-26T07:08:58;101268.25;;;4.36;100.00
35647;BME280;28680;45.642;13.756;2023-01-26T07:11:24;101272.53;;;4.37;100.00
35647;BME280;28680;45.642;13.756;2023-01-26T07:13:50;101266.75;;;4.30;100.00
35647;BME280;28680;45.642;13.756;2023-01-26T07:16:17;101277.75;;;4.37;100.00
35647;BME280;28680;45.642;13.756;2023-01-26T07:18:43;101278.13;;;4.28;100.00
35647;BME280;28680;45.642;13.756;2023-01-26T07:21:17;101279.50;;;4.37;100.00
35647;BME280;28680;45.642;13.756;2023-01-26T07:23:44;101281.38;;;4.73;100.00
35647;BME280;28680;45.642;13.756;2023-01-26T07:26:10;101270.75;;;4.58;100.00
35647;BME280;28680;45.642;13.756;2023-01-26T07:28:36;101280.50;;;4.53;100.00
35647;BME280;28680;45.642;13.756;2023-01-26T07:31:05;101268.56;;;4.49;100.00
35647;BME280;28680;45.642;13.756;2023-01-26T07:33:32;101279.59;;;4.54;100.00
35647;BME280;28680;45.642;13.756;2023-01-26T07:35:59;101276.00;;;4.57;100.00
35647;BME280;28680;45.642;13.756;2023-01-26T07:38:26;101265.66;;;4.55;100.00
35647;BME280;28680;45.642;13.756;2023-01-26T07:40:56;101280.69;;;5.43;100.00
35647;BME280;28680;45.642;13.756;2023-01-26T07:43:22;101283.78;;;5.33;100.00
35647;BME280;28680;45.642;13.756;2023-01-26T07:45:51;101260.75;;;5.96;100.00
35647;BME280;28680;45.642;13.756;2023-01-26T07:48:19;101257.44;;;5.93;100.00
35647;BME280;28680;45.642;13.756;2023-01-26T07:50:46;101274.84;;;5.92;100.00
35647;BME280;28680;45.642;13.756;2023-01-26T07:53:13;101277.88;;;6.18;100.00
35647;BME280;28680;45.642;13.756;2023-01-26T07:55:40;101268.78;;;6.76;100.00
35647;BME280;28680;45.642;13.756;2023-01-26T07:58:10;101274.19;;;7.05;100.00
35647;BME280;28680;45.642;13.756;2023-01-26T08:00:36;101267.22;;;7.05;100.00
35647;BME280;28680;45.642;13.756;2023-01-26T08:03:02;101269.53;;;7.41;100.00
35647;BME280;28680;45.642;13.756;2023-01-26T08:05:28;101271.13;;;7.44;100.00
35647;BME280;28680;45.642;13.756;2023-01-26T08:08:09;101273.75;;;7.28;100.00
35647;BME280;28680;45.642;13.756;2023-01-26T08:10:35;101260.38;;;7.95;100.00
35647;BME280;28680;45.642;13.756;2023-01-26T08:13:01;101274.81;;;7.86;100.00
35647;BME280;28680;45.642;13.756;2023-01-26T08:15:28;101267.22;;;8.12;100.00
35647;BME280;28680;45.642;13.756;2023-01-26T08:17:54;101288.41;;;8.22;100.00
35647;BME280;28680;45.642;13.756;2023-01-26T08:20:20;101274.91;;;7.85;100.00
35647;BME280;28680;45.642;13.756;2023-01-26T08:22:46;101279.75;;;8.21;100.00
35647;BME280;28680;45.642;13.756;2023-01-26T08:25:12;101276.28;;;8.35;100.00
35647;BME280;28680;45.642;13.756;2023-01-26T08:27:38;101280.03;;;8.88;100.00
35647;BME280;28680;45.642;13.756;2023-01-26T08:30:04;101293.88;;;8.90;100.00
35647;BME280;28680;45.642;13.756;2023-01-26T08:32:32;101298.00;;;9.22;100.00
35647;BME280;28680;45.642;13.756;2023-01-26T08:34:58;101290.50;;;9.30;100.00
35647;BME280;28680;45.642;13.756;2023-01-26T08:37:24;101304.69;;;9.40;98.60
35647;BME280;28680;45.642;13.756;2023-01-26T08:39:50;101289.88;;;9.26;98.08
35647;BME280;28680;45.642;13.756;2023-01-26T08:42:16;101295.72;;;9.84;92.90
35647;BME280;28680;45.642;13.756;2023-01-26T08:44:41;101301.63;;;9.33;91.89
35647;BME280;28680;45.642;13.756;2023-01-26T08:47:07;101304.19;;;9.75;92.96
35647;BME280;28680;45.642;13.756;2023-01-26T08:49:33;101297.03;;;10.17;89.85
35647;BME280;28680;45.642;13.756;2023-01-26T08:51:59;101290.09;;;10.54;100.00
35647;BME280;28680;45.642;13.756;2023-01-26T08:54:25;101300.44;;;9.92;91.39
35647;BME280;28680;45.642;13.756;2023-01-26T08:56:50;101297.69;;;9.68;90.80
35647;BME280;28680;45.642;13.756;2023-01-26T08:59:17;101301.81;;;9.98;90.41
35647;BME280;28680;45.642;13.756;2023-01-26T09:01:43;101304.19;;;10.41;92.73
35647;BME280;28680;45.642;13.756;2023-01-26T09:04:09;101311.13;;;10.42;79.31
35647;BME280;28680;45.642;13.756;2023-01-26T09:06:37;101288.84;;;10.73;80.41
35647;BME280;28680;45.642;13.756;2023-01-26T09:10:14;101288.75;;;11.11;80.27
35647;BME280;28680;45.642;13.756;2023-01-26T09:12:59;101281.31;;;11.29;77.89
35647;BME280;28680;45.642;13.756;2023-01-26T09:15:26;101277.47;;;11.82;74.04
35647;BME280;28680;45.642;13.756;2023-01-26T09:22:06;101252.13;;;12.39;95.31
35647;BME280;28680;45.642;13.756;2023-01-26T09:24:53;101244.47;;;12.36;100.00
35647;BME280;28680;45.642;13.756;2023-01-26T09:30:23;101254.72;;;12.84;100.00
35647;BME280;28680;45.642;13.756;2023-01-26T09:32:58;101240.59;;;12.85;89.67
35647;BME280;28680;45.642;13.756;2023-01-26T09:35:28;101229.72;;;13.22;100.00
35647;BME280;28680;45.642;13.756;2023-01-26T09:38:06;101229.72;;;13.33;98.04
35647;BME280;28680;45.642;13.756;2023-01-26T09:43:44;101237.19;;;13.49;100.00
35647;BME280;28680;45.642;13.756;2023-01-26T09:49:12;101246.47;;;14.07;100.00
35647;BME280;28680;45.642;13.756;2023-01-26T09:52:35;101241.22;;;13.86;67.51
35647;BME280;28680;45.642;13.756;2023-01-26T09:55:01;101256.41;;;14.24;100.00
35647;BME280;28680;45.642;13.756;2023-01-26T09:58:08;101251.09;;;14.45;65.74
35647;BME280;28680;45.642;13.756;2023-01-26T10:00:49;101236.88;;;14.57;88.44
35647;BME280;28680;45.642;13.756;2023-01-26T10:08:23;101260.28;;;14.91;62.18
35647;BME280;28680;45.642;13.756;2023-01-26T10:11:01;101246.50;;;14.16;51.40
35647;BME280;28680;45.642;13.756;2023-01-26T10:13:29;101249.59;;;14.21;99.57
35647;BME280;28680;45.642;13.756;2023-01-26T10:16:04;101247.47;;;14.67;53.44
35647;BME280;28680;45.642;13.756;2023-01-26T10:18:59;101241.66;;;14.93;49.88
35647;BME280;28680;45.642;13.756;2023-01-26T10:21:34;101259.78;;;15.17;71.46
35647;BME280;28680;45.642;13.756;2023-01-26T10:24:02;101259.66;;;15.38;53.41
35647;BME280;28680;45.642;13.756;2023-01-26T10:26:32;101279.66;;;14.92;45.75
35647;BME280;28680;45.642;13.756;2023-01-26T10:28:58;101256.31;;;15.16;49.42
35647;BME280;28680;45.642;13.756;2023-01-26T10:31:31;101238.94;;;15.24;44.72
35647;BME280;28680;45.642;13.756;2023-01-26T10:34:26;101278.63;;;14.73;43.89
35647;BME280;28680;45.642;13.756;2023-01-26T10:37:09;101254.47;;;13.95;45.14
35647;BME280;28680;45.642;13.756;2023-01-26T10:39:56;101257.81;;;13.97;47.99
35647;BME280;28680;45.642;13.756;2023-01-26T10:42:33;101254.31;;;14.49;47.85
35647;BME280;28680;45.642;13.756;2023-01-26T10:45:01;101250.03;;;14.98;45.26
35647;BME280;28680;45.642;13.756;2023-01-26T10:47:27;101249.66;;;14.62;48.78
35647;BME280;28680;45.642;13.756;2023-01-26T10:50:23;101258.94;;;13.62;46.93
35647;BME280;28680;45.642;13.756;2023-01-26T10:53:03;101249.19;;;13.74;47.50
35647;BME280;28680;45.642;13.756;2023-01-26T10:55:32;101257.03;;;14.07;46.48
35647;BME280;28680;45.642;13.756;2023-01-26T10:57:58;101232.78;;;14.94;49.25
35647;BME280;28680;45.642;13.756;2023-01-26T11:00:32;101228.31;;;15.63;46.86
35647;BME280;28680;45.642;13.756;2023-01-26T11:03:22;101236.78;;;16.05;44.52
35647;BME280;28680;45.642;13.756;2023-01-26T11:06:15;101221.94;;;15.75;41.54
35647;BME280;28680;45.642;13.756;2023-01-26T11:08:42;101232.63;;;15.93;43.42
35647;BME280;28680;45.642;13.756;2023-01-26T11:11:25;101221.03;;;16.41;39.82
35647;BME280;28680;45.642;13.756;2023-01-26T11:14:14;101220.97;;;16.23;39.81
35647;BME280;28680;45.642;13.756;2023-01-26T11:16:53;101198.75;;;16.89;39.62
35647;BME280;28680;45.642;13.756;2023-01-26T11:32:10;101187.97;;;16.45;39.51
35647;BME280;28680;45.642;13.756;2023-01-26T11:35:35;101170.53;;;16.70;39.32
35647;BME280;28680;45.642;13.756;2023-01-26T11:41:22;101155.94;;;16.11;39.15
35647;BME280;28680;45.642;13.756;2023-01-26T11:47:00;101129.25;;;17.22;36.99
35647;BME280;28680;45.642;13.756;2023-01-26T12:21:19;101091.28;;;19.24;33.53
35647;BME280;28680;45.642;13.756;2023-01-26T12:24:03;101079.97;;;19.31;33.65
35647;BME280;28680;45.642;13.756;2023-01-26T12:26:42;101089.94;;;19.37;36.76
35647;BME280;28680;45.642;13.756;2023-01-26T12:32:11;101081.28;;;19.35;31.81
35647;BME280;28680;45.642;13.756;2023-01-26T12:34:39;101085.25;;;19.39;33.49
35647;BME280;28680;45.642;13.756;2023-01-26T12:43:21;101060.19;;;19.89;31.72
35647;BME280;28680;45.642;13.756;2023-01-26T12:45:55;101057.59;;;19.64;31.11
35647;BME280;28680;45.642;13.756;2023-01-26T12:51:49;101041.66;;;19.48;31.93
35647;BME280;28680;45.642;13.756;2023-01-26T12:54:46;101048.06;;;19.78;32.84
35647;BME280;28680;45.642;13.756;2023-01-26T12:57:21;101035.66;;;20.02;35.49
35647;BME280;28680;45.642;13.756;2023-01-26T12:59:50;101035.38;;;19.89;33.11
35647;BME280;28680;45.642;13.756;2023-01-26T13:02:30;101037.06;;;18.60;31.49
35647;BME280;28680;45.642;13.756;2023-01-26T13:05:00;101030.34;;;19.46;34.42
35647;BME280;28680;45.642;13.756;2023-01-26T13:07:38;101041.91;;;19.70;31.61
35647;BME280;28680;45.642;13.756;2023-01-26T13:15:21;101017.34;;;19.99;30.23
35647;BME280;28680;45.642;13.756;2023-01-26T13:17:59;101023.25;;;19.22;30.34
35647;BME280;28680;45.642;13.756;2023-01-26T13:20:48;101028.78;;;18.79;30.60
35647;BME280;28680;45.642;13.756;2023-01-26T13:23:41;101017.66;;;18.84;34.79
35647;BME280;28680;45.642;13.756;2023-01-26T13:34:56;101015.44;;;19.20;31.35
35647;BME280;28680;45.642;13.756;2023-01-26T13:37:32;101000.19;;;18.32;31.53
35647;BME280;28680;45.642;13.756;2023-01-26T13:48:45;100983.59;;;17.28;32.46
35647;BME280;28680;45.642;13.756;2023-01-26T13:54:00;100977.59;;;18.77;31.71
35647;BME280;28680;45.642;13.756;2023-01-26T13:59:16;100999.81;;;18.10;32.45
35647;BME280;28680;45.642;13.756;2023-01-26T14:01:49;100995.34;;;17.60;32.31
35647;BME280;28680;45.642;13.756;2023-01-26T14:04:26;101010.00;;;16.86;32.92
35647;BME280;28680;45.642;13.756;2023-01-26T14:07:13;101001.09;;;17.56;33.38
35647;BME280;28680;45.642;13.756;2023-01-26T14:09:48;101002.41;;;17.17;32.83
35647;BME280;28680;45.642;13.756;2023-01-26T14:12:44;101001.31;;;15.66;34.76
35647;BME280;28680;45.642;13.756;2023-01-26T14:15:30;100992.94;;;14.96;36.14
35647;BME280;28680;45.642;13.756;2023-01-26T14:18:02;101006.03;;;14.97;35.87
35647;BME280;28680;45.642;13.756;2023-01-26T14:23:26;101006.16;;;14.96;41.11
35647;BME280;28680;45.642;13.756;2023-01-26T14:26:10;100995.97;;;13.94;57.71
35647;BME280;28680;45.642;13.756;2023-01-26T14:28:43;100992.78;;;14.00;42.77
35647;BME280;28680;45.642;13.756;2023-01-26T14:31:18;100989.91;;;14.13;40.75
35647;BME280;28680;45.642;13.756;2023-01-26T14:33:46;100971.00;;;14.27;43.32
35647;BME280;28680;45.642;13.756;2023-01-26T14:36:16;100978.91;;;14.08;41.96
35647;BME280;28680;45.642;13.756;2023-01-26T14:38:46;100990.03;;;14.11;44.36
35647;BME280;28680;45.642;13.756;2023-01-26T14:41:27;100978.84;;;15.15;39.61
35647;BME280;28680;45.642;13.756;2023-01-26T14:43:57;101005.31;;;14.17;38.73
35647;BME280;28680;45.642;13.756;2023-01-26T14:46:34;100978.06;;;13.97;39.41
35647;BME280;28680;45.642;13.756;2023-01-26T14:49:15;100984.81;;;12.14;42.58
35647;BME280;28680;45.642;13.756;2023-01-26T14:51:44;100979.88;;;12.20;43.90
35647;BME280;28680;45.642;13.756;2023-01-26T14:54:21;100974.31;;;11.80;44.69
35647;BME280;28680;45.642;13.756;2023-01-26T14:56:50;100990.94;;;12.35;44.29
35647;BME280;28680;45.642;13.756;2023-01-26T14:59:36;100966.25;;;13.92;41.76
35647;BME280;28680;45.642;13.756;2023-01-26T15:02:35;100961.69;;;14.03;40.28
35647;BME280;28680;45.642;13.756;2023-01-26T15:05:29;100964.50;;;14.31;39.52